Time,TemperatureF,DewpointF,PressureIn,WindDirection,WindDirectionDegrees,WindSpeedMPH,WindSpeedGustMPH,Humidity,HourlyPrecipIn,Conditions,Clouds,dailyrainin,SoftwareType,DateUTC
2013-01-16 00:00:00,23.4,18.3,30.07,East,83,2.0,6.0,81,0.00,,,0.00,meteohub,2013-01-16 05:00:00,
2013-01-16 00:03:00,23.2,18.5,30.07,SSW,210,1.0,5.0,82,0.00,,,0.00,meteohub,2013-01-16 05:03:00,
2013-01-16 00:07:00,23.2,18.5,30.06,South,174,3.0,5.0,82,0.00,,,0.00,meteohub,2013-01-16 05:07:00,
2013-01-16 00:12:00,23.2,18.5,30.06,East,79,1.0,5.0,82,0.00,,,0.00,meteohub,2013-01-16 05:12:00,
2013-01-16 00:17:00,23.2,18.5,30.06,SSE,152,0.0,4.0,82,0.00,,,0.00,meteohub,2013-01-16 05:17:00,
2013-01-16 00:22:00,23.0,18.3,30.06,SSW,213,1.0,3.0,82,0.00,,,0.00,meteohub,2013-01-16 05:22:00,
2013-01-16 00:27:00,22.8,18.1,30.06,ESE,110,1.0,4.0,82,0.00,,,0.00,meteohub,2013-01-16 05:27:00,
2013-01-16 00:32:00,22.8,18.5,30.06,SSE,155,0.0,4.0,83,0.00,,,0.00,meteohub,2013-01-16 05:32:00,
2013-01-16 00:37:00,22.6,18.3,30.06,SE,141,1.0,4.0,83,0.00,,,0.00,meteohub,2013-01-16 05:37:00,
2013-01-16 00:42:00,22.6,18.3,30.05,East,86,0.0,4.0,83,0.00,,,0.00,meteohub,2013-01-16 05:42:00,
2013-01-16 00:47:00,22.6,18.5,30.05,NNE,30,2.0,4.0,84,0.00,,,0.00,meteohub,2013-01-16 05:47:00,
2013-01-16 00:52:00,22.5,18.1,30.05,SSW,195,2.0,4.0,83,0.00,,,0.00,meteohub,2013-01-16 05:52:00,
2013-01-16 00:57:00,22.5,18.1,30.05,South,188,0.0,4.0,83,0.00,,,0.00,meteohub,2013-01-16 05:57:00,
2013-01-16 01:02:00,22.3,18.1,30.04,East,96,0.0,4.0,84,0.00,,,0.00,meteohub,2013-01-16 06:02:00,
2013-01-16 01:07:00,22.3,18.1,30.04,ESE,102,0.0,4.0,84,0.00,,,0.00,meteohub,2013-01-16 06:07:00,
2013-01-16 01:12:00,21.9,18.1,30.04,ESE,120,0.0,4.0,85,0.00,,,0.00,meteohub,2013-01-16 06:12:00,
2013-01-16 01:17:00,21.7,18.1,30.03,East,83,1.0,2.0,86,0.00,,,0.00,meteohub,2013-01-16 06:17:00,
2013-01-16 01:22:00,21.9,18.1,30.03,SSE,162,1.0,2.0,85,0.00,,,0.00,meteohub,2013-01-16 06:22:00,
2013-01-16 01:27:00,21.9,18.1,30.03,ESE,116,1.0,3.0,85,0.00,,,0.00,meteohub,2013-01-16 06:27:00,
2013-01-16 01:32:00,21.9,18.3,30.03,East,88,1.0,3.0,86,0.00,,,0.00,meteohub,2013-01-16 06:32:00,
2013-01-16 01:37:00,21.9,18.1,30.02,East,92,1.0,2.0,85,0.00,,,0.00,meteohub,2013-01-16 06:37:00,
2013-01-16 01:42:00,21.7,18.1,30.01,ENE,72,2.0,2.0,86,0.00,,,0.00,meteohub,2013-01-16 06:42:00,
2013-01-16 01:47:00,21.9,18.3,30.01,South,177,0.0,2.0,86,0.00,,,0.00,meteohub,2013-01-16 06:47:00,
2013-01-16 01:52:00,21.9,18.3,30.01,East,96,0.0,2.0,86,0.00,,,0.00,meteohub,2013-01-16 06:52:00,
2013-01-16 01:57:00,21.9,18.3,30.01,East,92,2.0,2.0,86,0.00,,,0.00,meteohub,2013-01-16 06:57:00,
2013-01-16 02:02:00,22.3,18.7,30.01,East,85,1.0,2.0,86,0.00,,,0.00,meteohub,2013-01-16 07:02:00,
2013-01-16 02:07:00,22.5,18.9,30.00,ESE,120,3.0,3.0,86,0.00,,,0.00,meteohub,2013-01-16 07:07:00,
2013-01-16 02:12:00,22.8,19.0,30.00,East,98,2.0,6.0,85,0.00,,,0.00,meteohub,2013-01-16 07:12:00,
2013-01-16 02:17:00,23.0,19.2,30.00,ESE,119,2.0,6.0,85,0.00,,,0.00,meteohub,2013-01-16 07:17:00,
2013-01-16 02:22:00,23.2,19.0,29.99,SW,235,3.0,6.0,84,0.00,,,0.00,meteohub,2013-01-16 07:22:00,
2013-01-16 02:27:00,23.2,19.0,30.00,NE,54,0.0,6.0,84,0.00,,,0.00,meteohub,2013-01-16 07:27:00,
2013-01-16 02:32:00,23.4,19.2,29.99,ESE,108,1.0,6.0,84,0.00,,,0.00,meteohub,2013-01-16 07:32:00,
2013-01-16 02:37:00,23.4,19.2,29.99,SSW,196,5.0,6.0,84,0.00,,,0.00,meteohub,2013-01-16 07:37:00,
2013-01-16 02:42:00,23.4,19.2,29.99,SE,136,2.0,6.0,84,0.00,,,0.00,meteohub,2013-01-16 07:42:00,
2013-01-16 02:47:00,23.5,19.4,29.98,ENE,69,4.0,6.0,84,0.00,,,0.00,meteohub,2013-01-16 07:47:00,
2013-01-16 02:52:00,23.5,19.2,29.98,ESE,110,3.0,6.0,83,0.00,,,0.00,meteohub,2013-01-16 07:52:00,
2013-01-16 02:57:00,23.4,19.2,29.99,SSE,155,2.0,5.0,84,0.00,,,0.00,meteohub,2013-01-16 07:57:00,
2013-01-16 03:02:00,23.4,19.2,29.98,East,100,2.0,5.0,84,0.00,,,0.00,meteohub,2013-01-16 08:02:00,
2013-01-16 03:07:00,23.2,19.0,29.98,SE,126,0.0,4.0,84,0.00,,,0.00,meteohub,2013-01-16 08:07:00,
2013-01-16 03:12:00,23.2,19.4,29.98,SSE,150,1.0,4.0,85,0.00,,,0.00,meteohub,2013-01-16 08:12:00,
2013-01-16 03:17:00,23.0,19.2,29.98,SE,136,2.0,3.0,85,0.00,,,0.00,meteohub,2013-01-16 08:17:00,
2013-01-16 03:22:00,23.0,19.2,29.98,SSE,158,1.0,3.0,85,0.00,,,0.00,meteohub,2013-01-16 08:22:00,
2013-01-16 03:27:00,22.8,19.0,29.97,East,96,1.0,3.0,85,0.00,,,0.00,meteohub,2013-01-16 08:27:00,
2013-01-16 03:32:00,22.8,19.0,29.97,South,182,3.0,3.0,85,0.00,,,0.00,meteohub,2013-01-16 08:32:00,
2013-01-16 03:37:00,22.8,19.0,29.97,SSW,195,0.0,3.0,85,0.00,,,0.00,meteohub,2013-01-16 08:37:00,
2013-01-16 03:42:00,22.8,19.0,29.96,ESE,109,5.0,5.0,85,0.00,,,0.00,meteohub,2013-01-16 08:42:00,
2013-01-16 03:47:00,22.8,19.0,29.96,SSW,206,2.0,6.0,85,0.00,,,0.00,meteohub,2013-01-16 08:47:00,
2013-01-16 03:52:00,22.8,19.0,29.96,SW,230,1.0,6.0,85,0.00,,,0.00,meteohub,2013-01-16 08:52:00,
2013-01-16 03:57:00,22.8,19.0,29.96,South,179,2.0,6.0,85,0.00,,,0.00,meteohub,2013-01-16 08:57:00,
2013-01-16 04:02:00,22.8,19.0,29.95,ESE,114,2.0,6.0,85,0.00,,,0.00,meteohub,2013-01-16 09:02:00,
2013-01-16 04:07:00,22.8,19.0,29.95,ESE,105,1.0,5.0,85,0.00,,,0.00,meteohub,2013-01-16 09:07:00,
2013-01-16 04:12:00,22.8,19.0,29.94,SE,129,2.0,5.0,85,0.00,,,0.00,meteohub,2013-01-16 09:12:00,
2013-01-16 04:17:00,23.0,19.2,29.94,South,186,4.0,5.0,85,0.00,,,0.00,meteohub,2013-01-16 09:17:00,
2013-01-16 04:22:00,23.0,19.2,29.94,ESE,111,2.0,6.0,85,0.00,,,0.00,meteohub,2013-01-16 09:22:00,
2013-01-16 04:27:00,23.0,19.2,29.94,SSE,155,3.0,6.0,85,0.00,,,0.00,meteohub,2013-01-16 09:27:00,
2013-01-16 04:32:00,22.8,19.0,29.94,ESE,115,3.0,6.0,85,0.00,,,0.00,meteohub,2013-01-16 09:32:00,
2013-01-16 04:37:00,22.8,19.0,29.93,South,169,2.0,6.0,85,0.00,,,0.00,meteohub,2013-01-16 09:37:00,
2013-01-16 04:42:00,22.6,18.9,29.93,ENE,70,4.0,7.0,85,0.00,,,0.00,meteohub,2013-01-16 09:42:00,
2013-01-16 04:47:00,22.6,18.9,29.92,ENE,78,3.0,7.0,85,0.00,,,0.00,meteohub,2013-01-16 09:47:00,
2013-01-16 04:52:00,22.6,18.9,29.92,SSE,157,2.0,6.0,85,0.00,,,0.00,meteohub,2013-01-16 09:52:00,
2013-01-16 04:57:00,22.5,18.7,29.91,SE,124,4.0,7.0,85,0.00,,,0.00,meteohub,2013-01-16 09:57:00,
2013-01-16 05:02:00,22.5,18.7,29.91,SSE,165,4.0,8.0,85,0.00,,,0.00,meteohub,2013-01-16 10:02:00,
2013-01-16 05:07:00,22.5,18.7,29.90,South,173,4.0,8.0,85,0.00,,,0.00,meteohub,2013-01-16 10:07:00,
2013-01-16 05:12:00,22.5,18.7,29.90,ESE,117,3.0,8.0,85,0.00,,,0.00,meteohub,2013-01-16 10:12:00,
2013-01-16 05:17:00,22.5,18.9,29.90,SSE,157,4.0,7.0,86,0.00,,,0.00,meteohub,2013-01-16 10:17:00,
2013-01-16 05:22:00,22.5,18.7,29.89,NNW,340,2.0,7.0,85,0.00,,,0.00,meteohub,2013-01-16 10:22:00,
2013-01-16 05:27:00,22.3,18.5,29.88,South,179,3.0,7.0,85,0.00,,,0.00,meteohub,2013-01-16 10:27:00,
2013-01-16 05:32:00,22.5,18.7,29.88,ESE,112,5.0,6.0,85,0.00,,,0.00,meteohub,2013-01-16 10:32:00,
2013-01-16 05:37:00,22.5,18.7,29.88,ENE,75,0.0,6.0,85,0.00,,,0.00,meteohub,2013-01-16 10:37:00,
2013-01-16 05:43:00,22.5,18.9,29.87,ESE,110,4.0,8.0,86,0.00,,,0.00,meteohub,2013-01-16 10:43:00,
2013-01-16 05:48:00,22.5,18.7,29.87,East,97,1.0,8.0,85,0.00,,,0.00,meteohub,2013-01-16 10:48:00,
2013-01-16 05:53:00,22.6,18.9,29.87,NE,54,3.0,8.0,85,0.00,,,0.00,meteohub,2013-01-16 10:53:00,
2013-01-16 05:58:00,22.6,18.9,29.86,SW,224,1.0,7.0,85,0.00,,,0.00,meteohub,2013-01-16 10:58:00,
2013-01-16 06:03:00,22.6,18.9,29.86,SE,138,2.0,7.0,85,0.00,,,0.00,meteohub,2013-01-16 11:03:00,
2013-01-16 06:08:00,22.8,19.0,29.86,ENE,68,1.0,7.0,85,0.00,,,0.00,meteohub,2013-01-16 11:08:00,
2013-01-16 06:13:00,23.0,18.9,29.86,SE,130,0.0,7.0,84,0.00,,,0.00,meteohub,2013-01-16 11:13:00,
2013-01-16 06:18:00,23.2,19.0,29.86,SE,144,2.0,6.0,84,0.00,,,0.00,meteohub,2013-01-16 11:18:00,
2013-01-16 06:23:00,23.4,19.2,29.85,SSW,207,3.0,6.0,84,0.00,,,0.00,meteohub,2013-01-16 11:23:00,
2013-01-16 06:28:00,23.4,19.2,29.85,SSE,157,4.0,7.0,84,0.00,,,0.00,meteohub,2013-01-16 11:28:00,
2013-01-16 06:33:00,23.4,19.0,29.85,WSW,254,1.0,7.0,83,0.00,,,0.00,meteohub,2013-01-16 11:33:00,
2013-01-16 06:38:00,23.4,19.0,29.85,SSW,212,1.0,8.0,83,0.00,,,0.00,meteohub,2013-01-16 11:38:00,
2013-01-16 06:43:00,23.2,18.9,29.85,SSE,154,1.0,8.0,83,0.00,,,0.00,meteohub,2013-01-16 11:43:00,
2013-01-16 06:48:00,23.2,18.9,29.84,ESE,119,1.0,8.0,83,0.00,,,0.00,meteohub,2013-01-16 11:48:00,
2013-01-16 06:53:00,23.2,18.9,29.84,SSE,157,3.0,5.0,83,0.00,,,0.00,meteohub,2013-01-16 11:53:00,
2013-01-16 06:58:00,23.2,19.0,29.84,SW,218,2.0,5.0,84,0.00,,,0.00,meteohub,2013-01-16 11:58:00,
2013-01-16 07:03:00,23.2,19.0,29.83,SSW,205,0.0,5.0,84,0.00,,,0.00,meteohub,2013-01-16 12:03:00,
2013-01-16 07:08:00,23.0,18.7,29.83,East,91,0.0,5.0,83,0.00,,,0.00,meteohub,2013-01-16 12:08:00,
2013-01-16 07:13:00,23.0,18.7,29.83,ESE,120,5.0,5.0,83,0.00,,,0.00,meteohub,2013-01-16 12:13:00,
2013-01-16 07:18:00,23.0,18.7,29.83,SW,229,2.0,5.0,83,0.00,,,0.00,meteohub,2013-01-16 12:18:00,
2013-01-16 07:23:00,22.8,18.5,29.82,SSE,148,2.0,6.0,83,0.00,,,0.00,meteohub,2013-01-16 12:23:00,
2013-01-16 07:28:00,22.8,18.5,29.82,ENE,61,2.0,6.0,83,0.00,,,0.00,meteohub,2013-01-16 12:28:00,
2013-01-16 07:33:00,23.0,18.7,29.81,SE,144,4.0,6.0,83,0.00,,,0.00,meteohub,2013-01-16 12:33:00,
2013-01-16 07:38:00,23.0,18.7,29.81,SE,129,3.0,6.0,83,0.00,,,0.00,meteohub,2013-01-16 12:38:00,
2013-01-16 07:43:00,22.8,18.5,29.80,SE,138,2.0,7.0,83,0.00,,,0.00,meteohub,2013-01-16 12:43:00,
2013-01-16 07:48:00,23.0,18.7,29.80,South,169,2.0,7.0,83,0.00,,,0.00,meteohub,2013-01-16 12:48:00,
2013-01-16 07:53:00,23.2,18.9,29.80,SE,124,4.0,7.0,83,0.00,,,0.00,meteohub,2013-01-16 12:53:00,
2013-01-16 07:58:00,23.2,18.5,29.79,ENE,65,3.0,7.0,82,0.00,,,0.00,meteohub,2013-01-16 12:58:00,
2013-01-16 08:03:00,23.4,18.7,29.79,ENE,67,4.0,8.0,82,0.00,,,0.00,meteohub,2013-01-16 13:03:00,
2013-01-16 08:08:00,23.4,18.3,29.79,SE,130,7.0,8.0,81,0.00,,,0.00,meteohub,2013-01-16 13:08:00,
2013-01-16 08:13:00,23.5,18.5,29.79,SSE,157,3.0,8.0,81,0.00,,,0.00,meteohub,2013-01-16 13:13:00,
2013-01-16 08:18:00,23.5,18.3,29.78,SSE,168,2.0,9.0,80,0.00,,,0.00,meteohub,2013-01-16 13:18:00,
2013-01-16 08:23:00,23.7,18.5,29.78,ESE,105,1.0,9.0,80,0.00,,,0.00,meteohub,2013-01-16 13:23:00,
2013-01-16 08:28:00,23.7,18.5,29.78,SSE,167,3.0,9.0,80,0.00,,,0.00,meteohub,2013-01-16 13:28:00,
2013-01-16 08:33:00,23.9,18.7,29.77,SE,129,3.0,7.0,80,0.00,,,0.00,meteohub,2013-01-16 13:33:00,
2013-01-16 08:38:00,24.1,18.5,29.78,SW,214,2.0,7.0,79,0.00,,,0.00,meteohub,2013-01-16 13:38:00,
2013-01-16 08:44:00,24.4,19.2,29.77,WSW,237,4.0,7.0,80,0.00,,,0.00,meteohub,2013-01-16 13:44:00,
2013-01-16 08:48:00,24.6,19.0,29.77,ESE,110,2.0,7.0,79,0.00,,,0.00,meteohub,2013-01-16 13:48:00,
2013-01-16 08:53:00,25.0,19.0,29.77,SSE,152,3.0,7.0,78,0.00,,,0.00,meteohub,2013-01-16 13:53:00,
2013-01-16 08:59:00,25.2,19.0,29.76,SE,135,3.0,7.0,77,0.00,,,0.00,meteohub,2013-01-16 13:59:00,
2013-01-16 09:04:00,25.3,19.2,29.76,SE,133,5.0,10.0,77,0.00,,,0.00,meteohub,2013-01-16 14:04:00,
2013-01-16 09:09:00,25.5,19.0,29.76,ENE,60,5.0,10.0,76,0.00,,,0.00,meteohub,2013-01-16 14:09:00,
2013-01-16 09:14:00,26.1,19.2,29.75,WNW,283,3.0,10.0,75,0.00,,,0.00,meteohub,2013-01-16 14:14:00,
2013-01-16 09:19:00,26.4,19.6,29.75,South,176,3.0,10.0,75,0.00,,,0.00,meteohub,2013-01-16 14:19:00,
2013-01-16 09:24:00,26.8,19.9,29.75,South,169,3.0,14.0,75,0.00,,,0.00,meteohub,2013-01-16 14:24:00,
2013-01-16 09:29:00,27.0,19.8,29.75,NNE,27,6.0,14.0,74,0.00,,,0.00,meteohub,2013-01-16 14:29:00,
2013-01-16 09:34:00,27.0,19.8,29.75,South,189,4.0,14.0,74,0.00,,,0.00,meteohub,2013-01-16 14:34:00,
2013-01-16 09:39:00,27.0,19.8,29.75,ESE,119,4.0,14.0,74,0.00,,,0.00,meteohub,2013-01-16 14:39:00,
2013-01-16 09:44:00,27.1,19.6,29.74,SSW,211,4.0,14.0,73,0.00,,,0.00,meteohub,2013-01-16 14:44:00,
2013-01-16 09:49:00,27.5,19.9,29.74,SSW,199,5.0,14.0,73,0.00,,,0.00,meteohub,2013-01-16 14:49:00,
2013-01-16 09:54:00,27.9,20.3,29.73,WSW,238,4.0,10.0,73,0.00,,,0.00,meteohub,2013-01-16 14:54:00,
2013-01-16 09:59:00,28.0,20.1,29.73,SSE,151,6.0,12.0,72,0.00,,,0.00,meteohub,2013-01-16 14:59:00,
2013-01-16 10:04:00,28.2,20.3,29.73,East,80,6.0,13.0,72,0.00,,,0.00,meteohub,2013-01-16 15:04:00,
2013-01-16 10:09:00,28.2,20.1,29.73,East,92,7.0,13.0,71,0.00,,,0.00,meteohub,2013-01-16 15:09:00,
2013-01-16 10:14:00,28.6,20.3,29.72,SE,145,7.0,14.0,71,0.00,,,0.00,meteohub,2013-01-16 15:14:00,
2013-01-16 10:19:00,28.6,20.3,29.73,NNE,31,6.0,18.0,71,0.00,,,0.00,meteohub,2013-01-16 15:19:00,
2013-01-16 10:24:00,28.6,20.3,29.72,ESE,119,6.0,18.0,71,0.00,,,0.00,meteohub,2013-01-16 15:24:00,
2013-01-16 10:29:00,28.4,20.5,29.71,East,88,4.0,18.0,72,0.00,,,0.00,meteohub,2013-01-16 15:29:00,
2013-01-16 10:34:00,28.4,20.5,29.71,SSW,205,6.0,16.0,72,0.00,,,0.00,meteohub,2013-01-16 15:34:00,
2013-01-16 10:39:00,28.4,20.5,29.70,ENE,68,4.0,16.0,72,0.00,,,0.00,meteohub,2013-01-16 15:39:00,
2013-01-16 10:44:00,28.4,20.5,29.70,SSE,155,7.0,13.0,72,0.00,,,0.00,meteohub,2013-01-16 15:44:00,
2013-01-16 10:49:00,28.6,20.7,29.69,South,171,6.0,11.0,72,0.00,,,0.00,meteohub,2013-01-16 15:49:00,
2013-01-16 10:54:00,28.8,20.8,29.70,North,351,6.0,11.0,72,0.00,,,0.00,meteohub,2013-01-16 15:54:00,
2013-01-16 10:59:00,28.9,21.4,29.70,WNW,289,1.0,16.0,73,0.00,,,0.00,meteohub,2013-01-16 15:59:00,
2013-01-16 11:04:00,29.1,21.2,29.69,SSE,163,2.0,16.0,72,0.00,,,0.00,meteohub,2013-01-16 16:04:00,
2013-01-16 11:10:00,29.1,21.2,29.69,East,100,10.0,16.0,72,0.00,,,0.00,meteohub,2013-01-16 16:10:00,
2013-01-16 11:15:00,29.3,21.0,29.69,East,88,3.0,13.0,71,0.00,,,0.00,meteohub,2013-01-16 16:15:00,
2013-01-16 11:20:00,29.3,21.4,29.68,ESE,108,3.0,14.0,72,0.00,,,0.00,meteohub,2013-01-16 16:20:00,
2013-01-16 11:25:00,29.5,21.9,29.68,NE,53,3.0,14.0,73,0.00,,,0.00,meteohub,2013-01-16 16:25:00,
2013-01-16 11:30:00,29.7,21.7,29.67,East,92,3.0,14.0,72,0.00,,,0.00,meteohub,2013-01-16 16:30:00,
2013-01-16 11:35:00,29.7,22.5,29.67,WNW,300,2.0,13.0,74,0.00,,,0.00,meteohub,2013-01-16 16:35:00,
2013-01-16 11:40:00,29.8,22.6,29.67,NE,38,3.0,10.0,74,0.00,,,0.00,meteohub,2013-01-16 16:40:00,
2013-01-16 11:45:00,29.7,23.0,29.67,NE,50,6.0,9.0,76,0.00,,,0.00,meteohub,2013-01-16 16:45:00,
2013-01-16 11:50:00,29.7,23.7,29.66,East,100,10.0,10.0,78,0.00,,,0.00,meteohub,2013-01-16 16:50:00,
2013-01-16 11:55:00,29.5,24.1,29.66,WSW,257,3.0,10.0,80,0.00,,,0.00,meteohub,2013-01-16 16:55:00,
2013-01-16 12:00:00,29.3,24.4,29.66,East,88,5.0,11.0,82,0.00,,,0.00,meteohub,2013-01-16 17:00:00,
2013-01-16 12:05:00,29.1,24.6,29.65,East,92,3.0,13.0,83,0.00,,,0.00,meteohub,2013-01-16 17:05:00,
2013-01-16 12:10:00,29.1,25.0,29.65,SW,223,4.0,13.0,84,0.00,,,0.00,meteohub,2013-01-16 17:10:00,
2013-01-16 12:15:00,28.9,25.0,29.65,NE,51,7.0,13.0,85,0.00,,,0.00,meteohub,2013-01-16 17:15:00,
2013-01-16 12:20:00,28.9,25.0,29.65,NE,50,3.0,13.0,85,0.00,,,0.00,meteohub,2013-01-16 17:20:00,
2013-01-16 12:25:00,28.8,25.2,29.65,East,79,1.0,13.0,86,0.00,,,0.00,meteohub,2013-01-16 17:25:00,
2013-01-16 12:30:00,28.6,25.2,29.65,ENE,67,1.0,11.0,87,0.00,,,0.00,meteohub,2013-01-16 17:30:00,
2013-01-16 12:35:00,28.6,25.2,29.65,North,6,1.0,15.0,87,0.00,,,0.00,meteohub,2013-01-16 17:35:00,
2013-01-16 12:40:00,28.6,25.7,29.65,SW,224,1.0,15.0,89,0.00,,,0.00,meteohub,2013-01-16 17:40:00,
2013-01-16 12:45:00,28.6,25.7,29.65,NE,39,3.0,15.0,89,0.00,,,0.00,meteohub,2013-01-16 17:45:00,
2013-01-16 12:50:00,28.6,26.1,29.65,SSW,213,1.0,8.0,90,0.00,,,0.00,meteohub,2013-01-16 17:50:00,
2013-01-16 12:55:00,28.4,26.1,29.65,NNE,17,2.0,8.0,91,0.00,,,0.00,meteohub,2013-01-16 17:55:00,
2013-01-16 13:00:00,28.4,26.1,29.65,NNE,27,3.0,8.0,91,0.00,,,0.00,meteohub,2013-01-16 18:00:00,
2013-01-16 13:05:00,28.4,26.1,29.64,ESE,105,1.0,9.0,91,0.00,,,0.00,meteohub,2013-01-16 18:05:00,
2013-01-16 13:10:00,28.6,26.2,29.64,West,263,0.0,9.0,91,0.00,,,0.00,meteohub,2013-01-16 18:10:00,
2013-01-16 13:15:00,28.6,26.6,29.64,SW,218,3.0,9.0,92,0.00,,,0.00,meteohub,2013-01-16 18:15:00,
2013-01-16 13:20:00,28.6,26.6,29.64,East,85,2.0,5.0,92,0.00,,,0.00,meteohub,2013-01-16 18:20:00,
2013-01-16 13:25:00,28.8,26.8,29.64,NE,41,1.0,6.0,92,0.00,,,0.00,meteohub,2013-01-16 18:25:00,
2013-01-16 13:30:00,28.9,27.0,29.64,East,96,2.0,7.0,92,0.00,,,0.00,meteohub,2013-01-16 18:30:00,
2013-01-16 13:35:00,29.1,27.1,29.65,SW,233,0.0,7.0,92,0.00,,,0.00,meteohub,2013-01-16 18:35:00,
2013-01-16 13:40:00,29.1,27.1,29.65,ENE,70,4.0,4.0,92,0.00,,,0.00,meteohub,2013-01-16 18:40:00,
2013-01-16 13:45:00,29.5,27.5,29.65,SW,216,1.0,5.0,92,0.00,,,0.00,meteohub,2013-01-16 18:45:00,
2013-01-16 13:50:00,29.7,27.7,29.65,ESE,117,4.0,8.0,92,0.00,,,0.00,meteohub,2013-01-16 18:50:00,
2013-01-16 13:55:00,29.7,27.7,29.65,North,352,4.0,8.0,92,0.00,,,0.00,meteohub,2013-01-16 18:55:00,
2013-01-16 14:01:00,29.8,27.9,29.64,East,96,3.0,8.0,92,0.00,,,0.00,meteohub,2013-01-16 19:01:00,
2013-01-16 14:06:00,29.8,27.5,29.65,SSW,212,3.0,7.0,91,0.00,,,0.00,meteohub,2013-01-16 19:06:00,
2013-01-16 14:11:00,29.8,27.5,29.64,NE,42,1.0,11.0,91,0.00,,,0.00,meteohub,2013-01-16 19:11:00,
2013-01-16 14:16:00,30.0,27.7,29.65,North,10,4.0,11.0,91,0.00,,,0.00,meteohub,2013-01-16 19:16:00,
2013-01-16 14:21:00,30.0,27.7,29.65,SSE,157,4.0,11.0,91,0.00,,,0.00,meteohub,2013-01-16 19:21:00,
2013-01-16 14:26:00,30.2,27.7,29.65,NE,46,3.0,10.0,90,0.00,,,0.00,meteohub,2013-01-16 19:26:00,
2013-01-16 14:31:00,30.0,27.7,29.65,WNW,297,3.0,7.0,91,0.00,,,0.00,meteohub,2013-01-16 19:31:00,
2013-01-16 14:36:00,30.2,27.9,29.65,NE,34,0.0,9.0,91,0.00,,,0.00,meteohub,2013-01-16 19:36:00,
2013-01-16 14:41:00,30.0,27.7,29.66,WNW,288,0.0,9.0,91,0.00,,,0.00,meteohub,2013-01-16 19:41:00,
2013-01-16 14:46:00,30.0,27.7,29.66,West,266,6.0,7.0,91,0.00,,,0.00,meteohub,2013-01-16 19:46:00,
2013-01-16 14:51:00,29.8,27.3,29.66,NW,311,3.0,9.0,90,0.00,,,0.00,meteohub,2013-01-16 19:51:00,
2013-01-16 14:56:00,29.8,27.0,29.66,North,351,2.0,9.0,89,0.00,,,0.00,meteohub,2013-01-16 19:56:00,
2013-01-16 15:01:00,29.7,27.1,29.66,WSW,248,3.0,9.0,90,0.00,,,0.00,meteohub,2013-01-16 20:01:00,
2013-01-16 15:06:00,29.7,27.1,29.67,SW,234,2.0,8.0,90,0.00,,,0.00,meteohub,2013-01-16 20:06:00,
2013-01-16 15:11:00,29.7,27.1,29.68,North,9,1.0,12.0,90,0.00,,,0.00,meteohub,2013-01-16 20:11:00,
2013-01-16 15:16:00,29.7,27.1,29.67,ENE,66,3.0,12.0,90,0.00,,,0.00,meteohub,2013-01-16 20:16:00,
2013-01-16 15:21:00,29.5,27.0,29.68,SW,218,2.0,12.0,90,0.00,,,0.00,meteohub,2013-01-16 20:21:00,
2013-01-16 15:26:00,29.5,27.0,29.68,WSW,251,3.0,8.0,90,0.00,,,0.00,meteohub,2013-01-16 20:26:00,
2013-01-16 15:31:00,29.5,26.6,29.68,SSW,202,2.0,8.0,89,0.00,,,0.00,meteohub,2013-01-16 20:31:00,
2013-01-16 15:36:00,29.5,26.6,29.68,West,268,1.0,10.0,89,0.00,,,0.00,meteohub,2013-01-16 20:36:00,
2013-01-16 15:41:00,29.5,26.6,29.68,NNW,343,3.0,10.0,89,0.00,,,0.00,meteohub,2013-01-16 20:41:00,
2013-01-16 15:46:00,29.5,26.6,29.68,WSW,255,4.0,10.0,89,0.00,,,0.00,meteohub,2013-01-16 20:46:00,
2013-01-16 15:51:00,29.5,26.6,29.68,WSW,248,2.0,7.0,89,0.00,,,0.00,meteohub,2013-01-16 20:51:00,
2013-01-16 15:56:00,29.7,26.6,29.68,NNW,342,2.0,7.0,88,0.00,,,0.00,meteohub,2013-01-16 20:56:00,
2013-01-16 16:01:00,29.7,26.2,29.68,West,275,2.0,9.0,87,0.00,,,0.00,meteohub,2013-01-16 21:01:00,
2013-01-16 16:06:00,29.7,26.2,29.69,NNW,328,9.0,9.0,87,0.00,,,0.00,meteohub,2013-01-16 21:06:00,
2013-01-16 16:11:00,29.7,26.1,29.69,South,184,1.0,10.0,86,0.00,,,0.00,meteohub,2013-01-16 21:11:00,
2013-01-16 16:16:00,29.7,26.1,29.69,SW,219,2.0,12.0,86,0.00,,,0.00,meteohub,2013-01-16 21:16:00,
2013-01-16 16:21:00,29.8,25.9,29.69,ESE,109,0.0,12.0,85,0.00,,,0.00,meteohub,2013-01-16 21:21:00,
2013-01-16 16:26:00,29.8,25.9,29.70,NNW,330,4.0,9.0,85,0.00,,,0.00,meteohub,2013-01-16 21:26:00,
2013-01-16 16:31:00,29.8,25.9,29.69,SSW,199,4.0,12.0,85,0.00,,,0.00,meteohub,2013-01-16 21:31:00,
2013-01-16 16:36:00,29.8,25.5,29.69,WNW,297,1.0,12.0,84,0.00,,,0.00,meteohub,2013-01-16 21:36:00,
2013-01-16 16:41:00,29.8,25.5,29.69,SSW,196,3.0,12.0,84,0.00,,,0.00,meteohub,2013-01-16 21:41:00,
2013-01-16 16:46:00,29.8,25.5,29.70,SW,216,3.0,7.0,84,0.00,,,0.00,meteohub,2013-01-16 21:46:00,
2013-01-16 16:51:00,29.8,25.5,29.70,SW,214,2.0,7.0,84,0.00,,,0.00,meteohub,2013-01-16 21:51:00,
2013-01-16 16:56:00,29.8,25.5,29.71,NNW,344,2.0,6.0,84,0.00,,,0.00,meteohub,2013-01-16 21:56:00,
2013-01-16 17:02:00,29.8,25.3,29.71,NW,306,3.0,8.0,83,0.00,,,0.00,meteohub,2013-01-16 22:02:00,
2013-01-16 17:07:00,30.0,25.7,29.72,WSW,242,1.0,8.0,84,0.00,,,0.00,meteohub,2013-01-16 22:07:00,
2013-01-16 17:12:00,30.0,25.7,29.72,WSW,244,1.0,8.0,84,0.00,,,0.00,meteohub,2013-01-16 22:12:00,
2013-01-16 17:17:00,30.0,25.7,29.72,NNE,22,1.0,6.0,84,0.00,,,0.00,meteohub,2013-01-16 22:17:00,
2013-01-16 17:22:00,30.0,25.7,29.72,NW,313,0.0,6.0,84,0.00,,,0.00,meteohub,2013-01-16 22:22:00,
2013-01-16 17:27:00,30.0,25.7,29.73,West,266,2.0,6.0,84,0.00,,,0.00,meteohub,2013-01-16 22:27:00,
2013-01-16 17:32:00,30.0,25.7,29.73,SSW,194,3.0,3.0,84,0.00,,,0.00,meteohub,2013-01-16 22:32:00,
2013-01-16 17:37:00,30.2,25.9,29.74,NNW,330,0.0,5.0,84,0.00,,,0.00,meteohub,2013-01-16 22:37:00,
2013-01-16 17:42:00,30.4,25.9,29.75,West,265,0.0,5.0,83,0.00,,,0.00,meteohub,2013-01-16 22:42:00,
2013-01-16 17:47:00,30.4,26.1,29.75,WSW,250,1.0,5.0,84,0.00,,,0.00,meteohub,2013-01-16 22:47:00,
2013-01-16 17:52:00,30.4,25.9,29.75,WNW,293,1.0,3.0,83,0.00,,,0.00,meteohub,2013-01-16 22:52:00,
2013-01-16 17:57:00,30.6,26.1,29.76,West,259,1.0,6.0,83,0.00,,,0.00,meteohub,2013-01-16 22:57:00,
2013-01-16 18:02:00,30.6,26.1,29.75,SW,214,2.0,7.0,83,0.00,,,0.00,meteohub,2013-01-16 23:02:00,
2013-01-16 18:07:00,30.6,25.7,29.75,South,182,1.0,7.0,82,0.00,,,0.00,meteohub,2013-01-16 23:07:00,
2013-01-16 18:12:00,30.6,26.1,29.76,SSW,192,3.0,7.0,83,0.00,,,0.00,meteohub,2013-01-16 23:12:00,
2013-01-16 18:17:00,30.6,26.1,29.77,NNW,337,2.0,5.0,83,0.00,,,0.00,meteohub,2013-01-16 23:17:00,
2013-01-16 18:22:00,30.6,25.7,29.76,SW,233,3.0,4.0,82,0.00,,,0.00,meteohub,2013-01-16 23:22:00,
2013-01-16 18:27:00,30.6,25.7,29.76,SW,219,5.0,7.0,82,0.00,,,0.00,meteohub,2013-01-16 23:27:00,
2013-01-16 18:32:00,30.7,25.5,29.77,West,259,0.0,7.0,81,0.00,,,0.00,meteohub,2013-01-16 23:32:00,
2013-01-16 18:37:00,30.7,25.5,29.76,NNE,18,2.0,7.0,81,0.00,,,0.00,meteohub,2013-01-16 23:37:00,
2013-01-16 18:42:00,30.7,25.5,29.77,WSW,252,2.0,7.0,81,0.00,,,0.00,meteohub,2013-01-16 23:42:00,
2013-01-16 18:47:00,30.7,25.5,29.77,WSW,240,3.0,7.0,81,0.00,,,0.00,meteohub,2013-01-16 23:47:00,
2013-01-16 18:52:00,30.7,25.5,29.77,North,0,2.0,7.0,81,0.00,,,0.00,meteohub,2013-01-16 23:52:00,
2013-01-16 18:57:00,30.7,25.9,29.77,SW,223,4.0,7.0,82,0.00,,,0.00,meteohub,2013-01-16 23:57:00,
2013-01-16 19:02:00,30.6,25.7,29.78,West,259,3.0,7.0,82,0.00,,,0.00,meteohub,2013-01-17 00:02:00,
2013-01-16 19:07:00,30.6,25.7,29.78,SW,220,0.0,7.0,82,0.00,,,0.00,meteohub,2013-01-17 00:07:00,
2013-01-16 19:12:00,30.6,25.7,29.78,North,356,2.0,7.0,82,0.00,,,0.00,meteohub,2013-01-17 00:12:00,
2013-01-16 19:17:00,30.6,26.1,29.78,SW,219,1.0,7.0,83,0.00,,,0.00,meteohub,2013-01-17 00:17:00,
2013-01-16 19:22:00,30.4,26.4,29.78,NNE,24,0.0,5.0,85,0.00,,,0.00,meteohub,2013-01-17 00:22:00,
2013-01-16 19:27:00,30.0,26.4,29.79,WNW,283,2.0,4.0,86,0.00,,,0.00,meteohub,2013-01-17 00:27:00,
2013-01-16 19:32:00,29.8,26.8,29.79,ENE,72,0.0,4.0,88,0.00,,,0.00,meteohub,2013-01-17 00:32:00,
2013-01-16 19:37:00,29.8,27.0,29.79,South,184,0.0,4.0,89,0.00,,,0.00,meteohub,2013-01-17 00:37:00,
2013-01-16 19:42:00,29.7,27.1,29.79,NW,309,1.0,6.0,90,0.00,,,0.00,meteohub,2013-01-17 00:42:00,
2013-01-16 19:47:00,29.7,27.1,29.79,West,269,4.0,6.0,90,0.00,,,0.00,meteohub,2013-01-17 00:47:00,
2013-01-16 19:52:00,29.7,27.3,29.80,SW,235,3.0,6.0,91,0.00,,,0.00,meteohub,2013-01-17 00:52:00,
2013-01-16 19:57:00,29.7,27.3,29.80,WNW,283,1.0,6.0,91,0.00,,,0.00,meteohub,2013-01-17 00:57:00,
2013-01-16 20:02:00,29.7,27.7,29.80,NNW,340,2.0,6.0,92,0.00,,,0.00,meteohub,2013-01-17 01:02:00,
2013-01-16 20:07:00,29.7,27.7,29.81,West,276,4.0,6.0,92,0.00,,,0.00,meteohub,2013-01-17 01:07:00,
2013-01-16 20:12:00,29.5,27.7,29.81,NW,321,4.0,8.0,93,0.00,,,0.00,meteohub,2013-01-17 01:12:00,
2013-01-16 20:17:00,28.9,27.1,29.82,NNW,328,5.0,11.0,93,0.00,,,0.00,meteohub,2013-01-17 01:17:00,
2013-01-16 20:22:00,28.6,26.8,29.82,WNW,300,7.0,11.0,93,0.00,,,0.00,meteohub,2013-01-17 01:22:00,
2013-01-16 20:27:00,27.7,25.7,29.83,North,352,8.0,16.0,92,0.00,,,0.00,meteohub,2013-01-17 01:27:00,
2013-01-16 20:32:00,26.8,24.8,29.83,SSW,196,4.0,16.0,92,0.00,,,0.00,meteohub,2013-01-17 01:32:00,
2013-01-16 20:37:00,26.4,24.4,29.84,WNW,295,5.0,17.0,92,0.00,,,0.00,meteohub,2013-01-17 01:37:00,
2013-01-16 20:42:00,26.2,24.4,29.85,West,280,4.0,17.0,93,0.00,,,0.00,meteohub,2013-01-17 01:42:00,
2013-01-16 20:47:00,26.2,24.4,29.85,WNW,285,2.0,16.0,93,0.00,,,0.00,meteohub,2013-01-17 01:47:00,
2013-01-16 20:52:00,26.1,23.7,29.85,NW,317,5.0,16.0,91,0.00,,,0.00,meteohub,2013-01-17 01:52:00,
2013-01-16 20:57:00,25.9,23.4,29.85,NW,309,7.0,11.0,90,0.00,,,0.00,meteohub,2013-01-17 01:57:00,
2013-01-16 21:02:00,26.1,22.6,29.85,NW,321,2.0,14.0,87,0.00,,,0.00,meteohub,2013-01-17 02:02:00,
2013-01-16 21:07:00,26.1,21.9,29.86,South,182,4.0,14.0,84,0.00,,,0.00,meteohub,2013-01-17 02:07:00,
2013-01-16 21:12:00,26.2,20.8,29.86,WNW,299,5.0,14.0,80,0.00,,,0.00,meteohub,2013-01-17 02:12:00,
2013-01-16 21:17:00,26.2,20.7,29.86,NNW,343,7.0,11.0,79,0.00,,,0.00,meteohub,2013-01-17 02:17:00,
2013-01-16 21:22:00,26.2,21.6,29.87,SSE,167,1.0,21.0,82,0.00,,,0.00,meteohub,2013-01-17 02:22:00,
2013-01-16 21:27:00,26.2,21.7,29.87,WSW,243,2.0,21.0,83,0.00,,,0.00,meteohub,2013-01-17 02:27:00,
2013-01-16 21:32:00,26.1,21.4,29.88,NNW,330,8.0,21.0,82,0.00,,,0.00,meteohub,2013-01-17 02:32:00,
2013-01-16 21:37:00,25.9,21.2,29.88,NW,317,7.0,16.0,82,0.00,,,0.00,meteohub,2013-01-17 02:37:00,
2013-01-16 21:42:00,25.5,20.5,29.88,WNW,289,4.0,17.0,81,0.00,,,0.00,meteohub,2013-01-17 02:42:00,
2013-01-16 21:47:00,25.5,20.5,29.89,WNW,292,5.0,21.0,81,0.00,,,0.00,meteohub,2013-01-17 02:47:00,
2013-01-16 21:52:00,25.3,20.3,29.89,North,8,8.0,21.0,81,0.00,,,0.00,meteohub,2013-01-17 02:52:00,
2013-01-16 21:57:00,25.2,19.9,29.90,West,264,5.0,14.0,80,0.00,,,0.00,meteohub,2013-01-17 02:57:00,
2013-01-16 22:02:00,25.2,19.9,29.90,WNW,290,2.0,14.0,80,0.00,,,0.00,meteohub,2013-01-17 03:02:00,
2013-01-16 22:07:00,25.2,20.1,29.91,NW,326,10.0,14.0,81,0.00,,,0.00,meteohub,2013-01-17 03:07:00,
2013-01-16 22:12:00,25.0,19.8,29.91,SSW,196,2.0,14.0,80,0.00,,,0.00,meteohub,2013-01-17 03:12:00,
2013-01-16 22:17:00,25.0,19.8,29.91,WNW,297,7.0,13.0,80,0.00,,,0.00,meteohub,2013-01-17 03:17:00,
2013-01-16 22:22:00,25.0,19.8,29.92,WNW,283,6.0,15.0,80,0.00,,,0.00,meteohub,2013-01-17 03:22:00,
2013-01-16 22:27:00,24.6,18.7,29.92,WNW,285,3.0,15.0,78,0.00,,,0.00,meteohub,2013-01-17 03:27:00,
2013-01-16 22:32:00,24.6,18.5,29.92,WNW,299,3.0,16.0,77,0.00,,,0.00,meteohub,2013-01-17 03:32:00,
2013-01-16 22:37:00,24.4,18.5,29.93,WSW,244,3.0,16.0,78,0.00,,,0.00,meteohub,2013-01-17 03:37:00,
2013-01-16 22:42:00,24.3,18.1,29.93,NNE,20,3.0,16.0,77,0.00,,,0.00,meteohub,2013-01-17 03:42:00,
2013-01-16 22:47:00,24.1,18.0,29.93,North,3,6.0,15.0,77,0.00,,,0.00,meteohub,2013-01-17 03:47:00,
2013-01-16 22:52:00,24.1,17.6,29.93,WSW,242,5.0,13.0,76,0.00,,,0.00,meteohub,2013-01-17 03:52:00,
2013-01-16 22:57:00,24.1,17.2,29.93,NNW,346,6.0,14.0,75,0.00,,,0.00,meteohub,2013-01-17 03:57:00,
2013-01-16 23:02:00,24.1,17.2,29.94,West,271,6.0,14.0,75,0.00,,,0.00,meteohub,2013-01-17 04:02:00,
2013-01-16 23:07:00,23.9,17.1,29.94,NNW,328,6.0,14.0,75,0.00,,,0.00,meteohub,2013-01-17 04:07:00,
2013-01-16 23:12:00,23.7,17.2,29.94,NW,316,4.0,12.0,76,0.00,,,0.00,meteohub,2013-01-17 04:12:00,
2013-01-16 23:17:00,23.5,17.1,29.94,NNW,345,6.0,10.0,76,0.00,,,0.00,meteohub,2013-01-17 04:17:00,
2013-01-16 23:22:00,23.5,16.7,29.95,West,271,3.0,12.0,75,0.00,,,0.00,meteohub,2013-01-17 04:22:00,
2013-01-16 23:27:00,23.5,16.5,29.95,WNW,289,4.0,12.0,74,0.00,,,0.00,meteohub,2013-01-17 04:27:00,
2013-01-16 23:32:00,23.5,16.7,29.96,NNE,18,4.0,13.0,75,0.00,,,0.00,meteohub,2013-01-17 04:32:00,
2013-01-16 23:37:00,23.4,17.2,29.96,NNE,17,5.0,13.0,77,0.00,,,0.00,meteohub,2013-01-17 04:37:00,
2013-01-16 23:42:00,23.4,17.6,29.97,NNW,337,4.0,13.0,78,0.00,,,0.00,meteohub,2013-01-17 04:42:00,
2013-01-16 23:47:00,23.4,18.1,29.98,NNE,21,5.0,12.0,80,0.00,,,0.00,meteohub,2013-01-17 04:47:00,
2013-01-16 23:52:00,23.2,17.4,29.98,North,7,3.0,13.0,78,0.00,,,0.00,meteohub,2013-01-17 04:52:00,
2013-01-16 23:57:00,22.8,17.2,29.98,North,351,5.0,13.0,79,0.00,,,0.00,meteohub,2013-01-17 04:57:00,